Time;durP1;ratioP1;P1;durP2;ratioP2;P2;SDS_P1;SDS_P2;PMS_P1;PMS_P2;Temp;Humidity;BMP_temperature;BMP_pressure;BME280_temperature;BME280_humidity;BME280_pressure;Samples;Min_cycle;Max_cycle;Signal;HPM_P1;HPM_P2
2023/05/23 00:00:35;;;;;;;9.15;5.35;;;;;;;12.12;85.44;99124.97;4907058;29;20114;-91
2023/05/23 00:03:09;;;;;;;7.97;5.35;;;;;;;12.15;85.57;99131.69;4908527;29;20508;-90
2023/05/23 00:05:35;;;;;;;11.73;5.57;;;;;;;12.21;85.07;99127.03;4923659;29;20030;-91
2023/05/23 00:08:01;;;;;;;13.73;5.10;;;;;;;12.28;84.61;99116.69;4923112;29;20106;-91
2023/05/23 00:10:27;;;;;;;7.10;5.03;;;;;;;12.43;84.00;99131.94;4907890;29;20087;-90
2023/05/23 00:12:57;;;;;;;9.45;4.70;;;;;;;12.64;83.98;99152.25;4908652;29;20039;-96
2023/05/23 00:15:40;;;;;;;7.00;4.93;;;;;;;12.51;83.68;99121.34;4915476;29;20043;-95
2023/05/23 00:18:07;;;;;;;13.75;5.20;;;;;;;12.48;83.48;99115.69;4930858;29;20035;-91
2023/05/23 00:20:35;;;;;;;8.55;5.43;;;;;;;12.31;84.64;99113.44;4927364;29;20027;-91
2023/05/23 00:23:02;;;;;;;10.98;6.38;;;;;;;12.17;85.07;99118.72;4911286;29;20039;-91
2023/05/23 00:25:32;;;;;;;9.18;6.10;;;;;;;12.29;84.59;99123.72;4925860;29;20031;-91
2023/05/23 00:28:01;;;;;;;9.63;5.97;;;;;;;12.28;84.41;99131.00;4928071;29;20031;-91
2023/05/23 00:30:28;;;;;;;9.80;6.00;;;;;;;12.25;84.75;99114.59;4927111;29;20097;-91
2023/05/23 00:32:54;;;;;;;10.18;5.50;;;;;;;12.42;84.04;99119.53;4910047;29;20027;-91
2023/05/23 00:35:20;;;;;;;12.25;5.10;;;;;;;12.34;84.06;99105.56;4926050;29;20035;-91
2023/05/23 00:37:46;;;;;;;10.43;5.57;;;;;;;12.46;84.18;99104.38;4909927;29;20028;-91
2023/05/23 00:40:12;;;;;;;8.93;5.80;;;;;;;12.45;84.16;99108.97;4896822;29;20024;-91
2023/05/23 00:42:37;;;;;;;8.48;5.57;;;;;;;12.29;84.19;99094.81;4906597;29;20036;-90
2023/05/23 00:45:04;;;;;;;10.52;5.72;;;;;;;12.30;84.62;99106.41;4906445;29;20083;-89
2023/05/23 00:47:29;;;;;;;10.13;6.00;;;;;;;12.08;83.45;99101.53;4903918;29;20025;-90
2023/05/23 00:49:54;;;;;;;9.18;6.38;;;;;;;12.17;82.96;99131.41;4887932;29;20055;-90
2023/05/23 00:52:20;;;;;;;8.57;6.10;;;;;;;12.05;83.83;99123.69;4887885;29;20032;-90
2023/05/23 00:54:45;;;;;;;11.60;6.32;;;;;;;11.97;83.18;99105.41;4888694;29;20458;-90
2023/05/23 00:57:11;;;;;;;7.68;6.10;;;;;;;12.04;83.27;99120.19;4872561;29;20058;-90
2023/05/23 00:59:36;;;;;;;8.00;6.18;;;;;;;12.15;84.16;99128.97;4873322;29;20032;-89
2023/05/23 01:02:02;;;;;;;10.32;6.22;;;;;;;11.97;84.57;99122.38;4888169;29;20038;-90
2023/05/23 01:04:28;;;;;;;10.27;6.95;;;;;;;12.04;84.36;99132.88;4872818;29;20059;-90
2023/05/23 01:06:54;;;;;;;12.15;6.47;;;;;;;11.79;84.38;99115.78;4872646;29;20035;-90
2023/05/23 01:09:20;;;;;;;11.35;6.28;;;;;;;11.89;83.97;99125.69;4872836;29;20410;-90
2023/05/23 01:12:04;;;;;;;10.15;6.22;;;;;;;12.03;83.22;99148.25;4872420;29;20036;-90
2023/05/23 01:15:07;;;;;;;9.88;6.10;;;;;;;11.96;83.58;99152.38;4920991;29;20118;-90
2023/05/23 01:17:53;;;;;;;17.33;8.23;;;;;;;11.90;85.19;99149.72;4913622;29;20075;-89
2023/05/23 01:20:21;;;;;;;12.23;7.88;;;;;;;11.88;85.57;99159.16;4903235;29;20038;-90
2023/05/23 01:23:13;;;;;;;10.23;6.65;;;;;;;11.82;85.03;99144.88;4908748;29;20035;-91
2023/05/23 01:26:03;;;;;;;7.55;6.10;;;;;;;11.85;84.60;99157.00;4892030;29;20554;-91
2023/05/23 01:28:36;;;;;;;11.82;7.63;;;;;;;11.80;84.30;99151.66;4905866;29;20040;-89
2023/05/23 01:31:02;;;;;;;15.13;7.15;;;;;;;11.86;84.12;99137.03;4907465;29;20035;-89
2023/05/23 01:33:29;;;;;;;12.05;7.55;;;;;;;11.82;84.46;99138.69;4890948;29;20049;-90
2023/05/23 01:35:55;;;;;;;15.35;7.13;;;;;;;11.85;84.18;99147.03;4891130;29;20038;-89
2023/05/23 01:38:21;;;;;;;13.77;7.88;;;;;;;11.86;84.08;99132.44;4890602;29;20057;-90
2023/05/23 01:40:46;;;;;;;14.68;7.45;;;;;;;12.02;83.57;99135.84;4891190;29;20102;-90
2023/05/23 01:43:12;;;;;;;10.13;6.63;;;;;;;11.89;83.57;99131.09;4891445;29;20387;-90
2023/05/23 01:45:37;;;;;;;16.52;7.15;;;;;;;11.87;84.07;99138.63;4891199;29;20031;-90
2023/05/23 01:48:03;;;;;;;14.07;7.18;;;;;;;11.80;84.09;99133.56;4890390;29;20044;-90
2023/05/23 01:50:28;;;;;;;10.13;7.00;;;;;;;11.83;84.02;99137.59;4890854;29;20091;-90
2023/05/23 01:52:55;;;;;;;10.07;6.90;;;;;;;11.74;84.30;99148.19;4891199;29;20032;-90
2023/05/23 01:55:21;;;;;;;10.60;6.93;;;;;;;11.73;84.58;99150.09;4890764;29;20027;-90
2023/05/23 01:57:50;;;;;;;13.50;7.90;;;;;;;11.62;83.81;99129.69;4890401;29;20023;-89
2023/05/23 02:00:22;;;;;;;15.68;7.53;;;;;;;11.73;84.26;99151.97;4891129;29;20031;-90
2023/05/23 02:02:47;;;;;;;12.70;7.80;;;;;;;11.58;83.92;99128.63;4921600;29;20026;-90
2023/05/23 02:05:13;;;;;;;12.55;7.75;;;;;;;11.61;84.33;99146.94;4890577;29;20023;-90
2023/05/23 02:07:38;;;;;;;10.85;7.82;;;;;;;11.49;84.63;99133.00;4890237;29;20399;-89
2023/05/23 02:10:08;;;;;;;12.25;7.20;;;;;;;11.56;84.13;99157.78;4890467;29;20023;-91
2023/05/23 02:12:34;;;;;;;9.30;6.82;;;;;;;11.50;84.20;99151.59;4905851;29;20020;-89
2023/05/23 02:15:00;;;;;;;12.00;7.10;;;;;;;11.56;83.82;99163.16;4905169;29;20038;-90
2023/05/23 02:17:26;;;;;;;10.80;7.00;;;;;;;11.61;83.45;99157.72;4937022;29;20517;-89
2023/05/23 02:19:52;;;;;;;11.95;6.75;;;;;;;11.57;83.19;99132.41;4889846;29;20023;-90
2023/05/23 02:22:17;;;;;;;13.32;7.28;;;;;;;11.65;83.66;99156.06;4905476;29;20461;-90
2023/05/23 02:24:42;;;;;;;13.85;6.93;;;;;;;11.51;83.74;99138.91;4905779;29;20059;-90
2023/05/23 02:27:08;;;;;;;13.93;7.60;;;;;;;11.38;83.67;99139.56;4889459;29;20019;-90
2023/05/23 02:29:33;;;;;;;11.82;6.80;;;;;;;11.33;84.49;99145.78;4889738;29;20036;-90
2023/05/23 02:31:59;;;;;;;10.00;7.13;;;;;;;11.22;84.45;99130.75;4889676;29;20039;-90
2023/05/23 02:34:25;;;;;;;11.57;7.13;;;;;;;11.29;84.47;99142.03;4889497;29;20059;-90
2023/05/23 02:36:50;;;;;;;9.48;6.55;;;;;;;11.39;83.59;99150.03;4889435;29;20627;-91
2023/05/23 02:39:16;;;;;;;9.73;6.43;;;;;;;11.45;83.27;99143.53;4905334;29;20035;-91
2023/05/23 02:41:41;;;;;;;10.38;6.63;;;;;;;11.39;83.85;99141.94;4889111;29;20028;-91
2023/05/23 02:44:07;;;;;;;12.32;7.75;;;;;;;11.30;84.10;99146.31;4889705;29;20038;-90
2023/05/23 02:46:32;;;;;;;11.75;7.40;;;;;;;11.17;84.37;99142.38;4889255;29;20019;-90
2023/05/23 02:48:58;;;;;;;8.88;6.93;;;;;;;11.13;84.71;99139.41;4889304;29;20055;-91
2023/05/23 02:51:23;;;;;;;10.40;7.28;;;;;;;11.16;84.87;99151.50;4889584;29;20024;-90
2023/05/23 02:53:49;;;;;;;12.35;7.82;;;;;;;11.17;85.24;99150.44;4888472;29;20031;-90
2023/05/23 02:56:14;;;;;;;12.48;7.82;;;;;;;11.03;85.54;99136.78;4888609;29;20031;-90
2023/05/23 02:58:40;;;;;;;12.10;8.20;;;;;;;11.24;85.01;99156.31;4889254;29;20027;-89
2023/05/23 03:01:07;;;;;;;12.85;7.28;;;;;;;11.31;84.48;99159.53;4889287;29;20032;-88
2023/05/23 03:03:32;;;;;;;10.00;7.50;;;;;;;11.27;84.74;99142.31;4889197;29;20028;-89
2023/05/23 03:05:58;;;;;;;16.15;7.78;;;;;;;11.20;84.98;99127.53;4904157;29;20406;-90
2023/05/23 03:08:24;;;;;;;15.13;8.20;;;;;;;11.31;84.97;99151.44;4888954;29;20071;-90
2023/05/23 03:10:49;;;;;;;16.08;7.63;;;;;;;11.30;85.05;99152.53;4889055;29;20027;-89
2023/05/23 03:13:15;;;;;;;11.52;7.82;;;;;;;11.25;85.15;99149.88;4889213;29;20054;-89
2023/05/23 03:15:41;;;;;;;12.80;7.22;;;;;;;11.24;85.03;99142.06;4888793;29;20024;-89
2023/05/23 03:18:06;;;;;;;10.48;7.07;;;;;;;11.06;84.91;99127.31;4889321;29;20055;-89
2023/05/23 03:20:32;;;;;;;11.70;7.43;;;;;;;11.23;84.91;99151.22;4889103;29;20026;-90
2023/05/23 03:22:57;;;;;;;17.60;8.02;;;;;;;11.11;85.01;99143.47;4889204;29;20035;-91
2023/05/23 03:25:23;;;;;;;15.13;7.82;;;;;;;11.10;85.15;99139.97;4920170;29;20032;-90
2023/05/23 03:27:48;;;;;;;16.08;8.38;;;;;;;11.13;84.71;99133.22;4904056;29;20028;-90
2023/05/23 03:30:14;;;;;;;16.23;7.95;;;;;;;11.25;85.24;99165.25;4921627;29;20031;-91
2023/05/23 03:32:39;;;;;;;13.30;7.65;;;;;;;11.25;84.78;99143.69;4889792;29;20422;-91
2023/05/23 03:35:05;;;;;;;14.52;8.57;;;;;;;11.26;84.91;99158.75;4905518;29;20487;-92
2023/05/23 03:37:31;;;;;;;11.18;7.20;;;;;;;11.31;85.37;99177.59;4889767;29;20115;-91
2023/05/23 03:39:56;;;;;;;23.00;8.98;;;;;;;11.19;85.07;99150.97;4905889;29;20019;-90
2023/05/23 03:42:22;;;;;;;14.95;8.82;;;;;;;11.27;85.24;99168.47;4889492;29;20016;-92
2023/05/23 03:44:47;;;;;;;21.08;9.63;;;;;;;11.37;85.18;99178.38;4889858;29;20038;-91
2023/05/23 03:47:13;;;;;;;18.17;9.05;;;;;;;11.20;84.87;99157.16;4889025;29;20075;-90
2023/05/23 03:49:38;;;;;;;22.73;8.98;;;;;;;11.41;84.97;99191.00;4889773;29;20051;-91
2023/05/23 03:52:04;;;;;;;13.63;8.43;;;;;;;11.23;85.12;99162.00;4905045;29;20035;-90
2023/05/23 03:54:29;;;;;;;17.85;9.82;;;;;;;11.41;84.64;99171.34;4915840;29;20051;-90
2023/05/23 03:56:55;;;;;;;24.05;9.98;;;;;;;11.31;84.57;99154.16;4926011;29;20544;-91
2023/05/23 03:59:21;;;;;;;22.35;8.38;;;;;;;11.59;84.81;99194.94;4895765;29;20122;-91
2023/05/23 04:01:46;;;;;;;17.17;10.07;;;;;;;11.42;84.63;99157.56;4917988;29;20059;-91
2023/05/23 04:04:12;;;;;;;21.60;10.43;;;;;;;11.38;85.12;99153.03;4896296;29;20038;-91
2023/05/23 04:06:37;;;;;;;21.27;11.18;;;;;;;11.41;85.07;99168.63;4898245;29;20032;-92
2023/05/23 04:09:05;;;;;;;17.73;9.93;;;;;;;11.59;85.42;99194.94;4892364;29;20039;-91
2023/05/23 04:11:30;;;;;;;19.98;9.88;;;;;;;11.50;85.28;99178.56;4894270;29;20035;-92
2023/05/23 04:13:56;;;;;;;19.98;9.98;;;;;;;11.51;85.12;99173.97;4909049;29;20019;-90
2023/05/23 04:16:22;;;;;;;15.48;9.00;;;;;;;11.59;84.65;99177.97;4922896;29;20023;-90
2023/05/23 04:18:48;;;;;;;21.52;10.80;;;;;;;11.53;84.85;99174.50;4886702;29;20090;-91
2023/05/23 04:21:33;;;;;;;29.98;19.20;;;;;;;11.57;85.12;99180.13;4892253;29;20051;-91
2023/05/23 04:24:02;;;;;;;19.25;9.48;;;;;;;11.63;85.61;99179.81;4894903;29;20035;-90
2023/05/23 04:26:27;;;;;;;13.75;8.60;;;;;;;11.62;85.76;99182.78;4911178;29;20482;-90
2023/05/23 04:28:53;;;;;;;20.88;9.40;;;;;;;11.76;85.47;99204.56;4908693;29;20027;-90
2023/05/23 04:32:21;;;;;;;;;;;;;;;;;;;;;
2023/05/23 04:34:49;;;;;;;19.92;9.45;;;;;;;11.72;85.86;99188.13;4943120;29;20130;-95
2023/05/23 04:37:16;;;;;;;17.95;9.60;;;;;;;11.71;85.72;99183.81;4908251;29;20051;-96
2023/05/23 04:39:47;;;;;;;12.65;9.23;;;;;;;11.81;84.83;99189.16;4918776;29;20038;-95
2023/05/23 04:45:00;;;;;;;14.80;9.27;;;;;;;11.97;84.46;99191.75;4955291;28;20062;-96
2023/05/23 04:47:36;;;;;;;23.15;9.63;;;;;;;11.95;84.73;99199.31;4957113;29;20030;-96
2023/05/23 04:50:10;;;;;;;19.88;10.55;;;;;;;11.88;84.32;99191.53;4940944;29;20023;-96
2023/05/23 04:52:40;;;;;;;30.83;12.88;;;;;;;12.09;83.94;99189.50;4955598;29;20027;-96
2023/05/23 04:55:14;;;;;;;15.68;8.75;;;;;;;12.10;84.35;99188.41;4921206;29;20406;-95
2023/05/23 04:58:34;;;;;;;17.05;9.45;;;;;;;12.17;84.44;99186.19;4930050;29;20024;-96
2023/05/23 05:04:22;;;;;;;18.15;9.07;;;;;;;12.45;83.68;99203.50;4918272;29;20076;-95
2023/05/23 05:06:48;;;;;;;17.88;9.60;;;;;;;12.60;84.18;99199.81;4897795;29;20020;-94
2023/05/23 05:09:15;;;;;;;15.30;9.63;;;;;;;12.69;83.55;99203.50;4895316;29;20065;-96
2023/05/23 05:11:43;;;;;;;17.02;9.95;;;;;;;12.83;82.80;99203.63;4915730;29;20040;-95
2023/05/23 05:14:09;;;;;;;13.73;9.00;;;;;;;13.13;82.06;99210.56;4885867;29;20402;-96
2023/05/23 05:16:35;;;;;;;18.33;9.57;;;;;;;13.32;82.21;99209.81;4890434;29;20040;-94
2023/05/23 05:19:13;;;;;;;18.83;9.50;;;;;;;13.28;81.00;99204.19;4878725;29;20032;-96
2023/05/23 05:21:44;;;;;;;15.45;9.30;;;;;;;13.45;81.61;99211.03;4892906;29;20104;-95
2023/05/23 05:24:14;;;;;;;14.35;8.68;;;;;;;13.51;82.19;99218.78;4893952;29;20031;-95
2023/05/23 05:27:31;;;;;;;;;;;;;;;;;;;;;
2023/05/23 05:30:03;;;;;;;15.38;10.32;;;;;;;13.58;81.51;99210.28;4900483;29;20119;-96
2023/05/23 05:32:45;;;;;;;17.95;11.00;;;;;;;13.70;81.00;99204.44;4933145;29;20035;-94
2023/05/23 05:35:13;;;;;;;18.25;9.80;;;;;;;13.70;80.29;99189.00;4939614;29;20024;-96
2023/05/23 05:38:04;;;;;;;15.27;10.25;;;;;;;13.99;80.05;99203.47;4933202;29;20027;-95
2023/05/23 05:40:32;;;;;;;20.63;10.23;;;;;;;14.24;80.63;99213.09;4944172;29;20054;-93
2023/05/23 05:42:59;;;;;;;19.08;10.27;;;;;;;14.41;78.79;99221.44;4922150;28;20054;-95
2023/05/23 05:45:27;;;;;;;17.98;10.32;;;;;;;14.27;78.20;99190.81;4947252;28;20601;-94
2023/05/23 05:47:52;;;;;;;16.23;9.82;;;;;;;14.57;77.81;99200.34;4931390;28;20023;-94
2023/05/23 05:50:19;;;;;;;13.40;9.60;;;;;;;14.54;78.23;99196.28;4930707;28;20029;-95
2023/05/23 05:52:44;;;;;;;18.02;10.23;;;;;;;14.77;77.59;99199.13;4931143;28;20027;-92
2023/05/23 05:55:10;;;;;;;30.92;16.80;;;;;;;15.06;77.27;99217.00;4935135;28;20093;-95
2023/05/23 05:57:39;;;;;;;15.45;10.70;;;;;;;14.98;76.90;99196.81;4934697;28;20084;-96
2023/05/23 06:00:11;;;;;;;17.75;11.07;;;;;;;15.14;77.13;99225.25;4932962;28;20026;-96
2023/05/23 06:02:37;;;;;;;15.73;10.70;;;;;;;15.10;77.19;99207.97;4935435;28;20026;-94
2023/05/23 06:05:10;;;;;;;17.58;10.63;;;;;;;15.38;76.23;99221.53;4932535;28;20030;-96
2023/05/23 06:07:39;;;;;;;13.65;10.10;;;;;;;15.50;75.88;99205.53;4939665;28;20023;-95
2023/05/23 06:10:05;;;;;;;13.65;10.50;;;;;;;15.65;75.34;99214.44;4926791;29;20490;-96
2023/05/23 06:12:37;;;;;;;17.80;10.77;;;;;;;15.74;75.83;99215.31;4915508;29;20473;-96
2023/05/23 06:15:05;;;;;;;13.65;9.50;;;;;;;15.64;76.03;99201.97;4935764;28;20023;-96
2023/05/23 06:17:43;;;;;;;18.67;11.45;;;;;;;15.64;75.99;99200.03;4951025;29;20027;-96
2023/05/23 06:20:55;;;;;;;14.00;9.38;;;;;;;15.86;76.16;99188.44;4952661;29;20046;-96
2023/05/23 06:23:23;;;;;;;13.93;9.75;;;;;;;16.25;75.20;99214.13;4951317;29;20031;-94
2023/05/23 06:25:49;;;;;;;14.52;8.85;;;;;;;16.34;74.62;99206.81;4916964;29;20035;-94
2023/05/23 06:28:23;;;;;;;15.20;9.57;;;;;;;16.52;74.44;99198.78;4978905;28;20054;-95
2023/05/23 06:31:00;;;;;;;;;;;;;;;;;;;;;
2023/05/23 06:33:27;;;;;;;13.00;8.45;;;;;;;17.01;72.59;99213.22;4966813;28;20122;-95
2023/05/23 06:35:53;;;;;;;13.73;8.15;;;;;;;17.01;71.40;99196.09;4967034;28;20082;-95
2023/05/23 06:38:18;;;;;;;12.90;8.20;;;;;;;17.36;70.05;99214.09;4967112;28;20031;-94
2023/05/23 06:40:44;;;;;;;11.63;8.25;;;;;;;17.44;70.75;99211.72;4965849;28;20031;-96
2023/05/23 06:43:12;;;;;;;11.85;8.30;;;;;;;17.55;70.25;99211.09;4985179;28;20484;-95
2023/05/23 06:45:41;;;;;;;10.02;7.68;;;;;;;17.94;68.75;99211.31;4991160;28;20102;-96
2023/05/23 06:48:40;;;;;;;15.68;8.57;;;;;;;18.14;69.16;99190.78;4990294;28;20019;-96
2023/05/23 06:51:07;;;;;;;10.85;7.72;;;;;;;18.41;68.15;99184.16;4984436;28;20090;-95
2023/05/23 06:56:08;;;;;;;12.38;7.03;;;;;;;19.08;64.96;99184.53;5020218;23;20091;-94
2023/05/23 06:58:34;;;;;;;14.18;8.10;;;;;;;19.44;64.88;99191.38;4920264;29;20023;-94
2023/05/23 07:01:00;;;;;;;10.25;6.20;;;;;;;19.29;64.86;99188.09;4911911;29;20027;-95
2023/05/23 07:03:25;;;;;;;14.95;6.60;;;;;;;19.49;63.96;99185.72;4912521;29;20047;-95
2023/05/23 07:05:51;;;;;;;8.45;6.82;;;;;;;19.57;64.33;99182.91;4913444;29;20030;-93
2023/05/23 07:08:16;;;;;;;9.98;8.25;;;;;;;19.77;63.32;99192.25;4927178;29;20019;-95
2023/05/23 07:10:42;;;;;;;9.90;5.88;;;;;;;19.86;62.17;99185.91;4911368;29;20023;-92
2023/05/23 07:13:07;;;;;;;6.35;4.70;;;;;;;19.65;61.55;99184.00;4916848;29;20023;-95
2023/05/23 07:15:33;;;;;;;8.23;4.38;;;;;;;19.57;61.46;99168.47;4911140;29;20023;-96
2023/05/23 07:18:04;;;;;;;7.35;4.22;;;;;;;19.45;61.63;99173.88;4936655;29;20031;-95
2023/05/23 07:20:35;;;;;;;6.35;4.03;;;;;;;19.43;61.63;99157.00;4932268;29;20031;-94
2023/05/23 07:23:00;;;;;;;6.05;4.10;;;;;;;19.56;60.76;99151.25;4919908;29;20039;-93
2023/05/23 07:25:26;;;;;;;4.75;3.80;;;;;;;19.55;59.92;99155.16;4960889;28;20027;-91
2023/05/23 07:27:53;;;;;;;6.82;4.13;;;;;;;19.70;59.45;99166.59;4943864;29;20090;-94
2023/05/23 07:30:20;;;;;;;9.48;3.65;;;;;;;19.83;59.53;99178.41;4927885;29;20035;-94
2023/05/23 07:32:49;;;;;;;10.43;5.85;;;;;;;19.76;59.03;99162.56;4927216;29;20023;-94
2023/05/23 07:35:15;;;;;;;4.90;3.50;;;;;;;19.72;59.73;99169.81;4911751;29;20028;-93
2023/05/23 07:37:41;;;;;;;6.97;3.38;;;;;;;19.55;59.97;99165.28;4912415;29;20030;-95
2023/05/23 07:40:12;;;;;;;6.88;3.70;;;;;;;19.52;59.83;99147.59;4928583;29;20035;-95
2023/05/23 07:42:38;;;;;;;6.07;3.63;;;;;;;19.74;59.61;99153.91;4931632;29;20047;-95
2023/05/23 07:45:06;;;;;;;8.82;3.90;;;;;;;19.65;59.51;99161.31;4927826;29;20109;-94
2023/05/23 07:47:33;;;;;;;11.27;4.38;;;;;;;19.86;58.99;99145.75;4929925;29;20028;-95
2023/05/23 07:50:27;;;;;;;4.68;3.38;;;;;;;20.13;59.62;99168.97;4960906;29;20023;-93
2023/05/23 07:52:53;;;;;;;12.90;4.43;;;;;;;20.26;59.07;99169.78;4935248;29;20118;-94
2023/05/23 07:55:20;;;;;;;7.88;3.33;;;;;;;20.33;56.44;99155.56;4913495;29;20115;-92
2023/05/23 07:57:45;;;;;;;7.22;3.38;;;;;;;20.27;54.78;99171.38;4947395;29;20019;-90
2023/05/23 08:00:11;;;;;;;7.80;3.30;;;;;;;20.42;55.55;99178.16;4938744;29;20042;-92
2023/05/23 08:02:37;;;;;;;4.85;3.35;;;;;;;20.45;55.66;99176.66;4916196;29;20027;-92
2023/05/23 08:05:07;;;;;;;4.68;3.03;;;;;;;20.27;56.02;99152.22;4928329;29;20038;-94
2023/05/23 08:07:32;;;;;;;5.65;3.25;;;;;;;20.23;54.33;99154.03;4921883;29;20106;-94
2023/05/23 08:09:58;;;;;;;7.18;3.78;;;;;;;20.17;54.04;99139.81;4913958;29;20497;-93
2023/05/23 08:12:24;;;;;;;5.43;3.65;;;;;;;20.20;53.14;99141.06;4939215;29;20501;-92
2023/05/23 08:14:49;;;;;;;11.00;7.70;;;;;;;20.23;52.98;99156.78;4940762;29;20379;-93
2023/05/23 08:17:15;;;;;;;5.32;3.20;;;;;;;20.18;53.34;99140.59;4907040;29;20032;-90
2023/05/23 08:19:40;;;;;;;4.72;3.28;;;;;;;20.17;53.64;99141.72;4941047;29;20090;-91
2023/05/23 08:22:06;;;;;;;7.15;3.42;;;;;;;20.27;52.74;99138.56;4924116;29;20486;-93
2023/05/23 08:24:33;;;;;;;4.95;3.13;;;;;;;20.24;53.56;99150.19;4926914;28;20035;-92
2023/05/23 08:26:59;;;;;;;5.00;3.38;;;;;;;20.21;53.90;99155.53;4929752;29;20106;-93
2023/05/23 08:29:24;;;;;;;3.50;2.75;;;;;;;20.07;54.99;99126.56;4926974;29;20031;-93
2023/05/23 08:31:51;;;;;;;7.38;3.50;;;;;;;20.22;54.09;99138.00;4928732;29;20039;-96
2023/05/23 08:34:20;;;;;;;3.85;3.05;;;;;;;20.45;54.87;99161.03;4916784;29;20031;-96
2023/05/23 08:36:49;;;;;;;6.00;3.10;;;;;;;20.50;52.76;99149.06;4917226;29;20047;-96
2023/05/23 08:39:17;;;;;;;7.63;3.15;;;;;;;20.49;51.91;99147.50;4935446;29;20031;-95
2023/05/23 08:41:50;;;;;;;4.30;2.90;;;;;;;20.36;50.83;99124.81;4910192;29;20150;-96
2023/05/23 08:44:16;;;;;;;4.25;2.80;;;;;;;20.34;49.67;99143.50;4953656;29;20086;-93
2023/05/23 08:46:54;;;;;;;6.32;3.15;;;;;;;20.37;52.48;99143.59;4936222;29;20027;-96
2023/05/23 08:49:20;;;;;;;7.03;3.10;;;;;;;20.29;52.02;99127.28;4951507;29;20034;-96
2023/05/23 08:51:46;;;;;;;5.28;2.70;;;;;;;20.59;51.14;99155.28;4946857;29;20024;-96
2023/05/23 08:54:32;;;;;;;6.45;3.50;;;;;;;20.71;51.99;99147.09;4944839;28;20034;-94
2023/05/23 08:56:58;;;;;;;4.97;3.28;;;;;;;20.75;51.99;99134.31;4959232;29;20035;-94
2023/05/23 08:59:25;;;;;;;5.53;2.72;;;;;;;20.83;50.32;99134.53;4953728;29;20080;-96
2023/05/23 09:01:54;;;;;;;9.90;2.92;;;;;;;20.89;50.68;99122.22;4955580;29;20497;-96
2023/05/23 09:04:19;;;;;;;8.85;3.40;;;;;;;20.92;51.43;99133.28;4956459;29;20035;-96
2023/05/23 09:07:27;;;;;;;7.05;2.60;;;;;;;21.09;49.88;99153.34;4971979;29;20413;-96
2023/05/23 09:09:52;;;;;;;4.97;3.40;;;;;;;21.03;50.66;99147.31;4970081;29;20091;-96
2023/05/23 09:12:23;;;;;;;4.75;2.55;;;;;;;20.76;50.12;99129.63;4955046;29;20046;-94
2023/05/23 09:15:15;;;;;;;4.65;2.75;;;;;;;20.97;50.60;99138.50;4940311;29;20095;-95
2023/05/23 09:17:43;;;;;;;9.25;3.00;;;;;;;20.81;50.74;99118.44;4947612;29;20031;-93
2023/05/23 09:20:14;;;;;;;7.32;3.35;;;;;;;21.03;50.86;99147.31;4954677;29;20033;-95
2023/05/23 09:22:46;;;;;;;4.15;2.88;;;;;;;21.04;50.48;99121.50;4937844;29;20087;-96
2023/05/23 09:25:12;;;;;;;3.42;2.72;;;;;;;21.04;50.91;99116.03;4939366;29;20034;-96
2023/05/23 09:27:38;;;;;;;7.05;2.70;;;;;;;21.17;49.50;99120.34;4936148;29;20016;-96
2023/05/23 09:30:07;;;;;;;8.30;2.83;;;;;;;21.25;50.55;99143.28;4968482;29;20023;-94
2023/05/23 09:32:40;;;;;;;4.75;3.25;;;;;;;21.06;50.00;99113.75;4934058;29;20121;-95
2023/05/23 09:35:06;;;;;;;4.75;3.13;;;;;;;21.14;50.91;99125.72;4919885;29;20027;-96
2023/05/23 09:37:39;;;;;;;6.63;3.20;;;;;;;21.20;50.40;99125.13;4936754;29;20070;-95
2023/05/23 09:40:16;;;;;;;7.85;3.20;;;;;;;21.29;48.60;99127.75;4939138;29;20069;-96
2023/05/23 09:42:43;;;;;;;5.72;3.42;;;;;;;21.44;49.12;99125.47;4933292;29;20493;-96
2023/05/23 09:45:09;;;;;;;5.82;2.90;;;;;;;21.53;47.48;99126.09;4933613;29;20019;-96
2023/05/23 09:47:38;;;;;;;3.80;2.60;;;;;;;21.61;48.53;99135.34;4932123;29;20433;-94
2023/05/23 09:50:04;;;;;;;10.30;3.65;;;;;;;21.69;48.43;99117.94;4934634;29;20051;-95
2023/05/23 10:27:19;;;;;;;5.00;3.13;;;;;;;22.78;44.79;99101.13;4968192;28;20051;-96
2023/05/23 10:29:50;;;;;;;4.55;2.63;;;;;;;22.87;44.14;99101.75;4951029;29;20481;-95
2023/05/23 10:32:25;;;;;;;4.40;2.90;;;;;;;22.69;43.86;99073.09;4951428;29;20030;-96
2023/05/23 10:35:18;;;;;;;6.75;3.58;;;;;;;22.64;44.01;99106.28;4928926;29;20042;-94
2023/05/23 10:37:45;;;;;;;5.65;3.30;;;;;;;22.74;44.05;99106.56;4946186;29;20038;-95
2023/05/23 10:40:55;;;;;;;14.13;3.58;;;;;;;22.86;43.56;99074.66;4931657;29;20031;-95
2023/05/23 10:43:39;;;;;;;5.70;3.10;;;;;;;23.07;42.84;99088.09;4949924;29;20031;-96
2023/05/23 10:46:07;;;;;;;9.30;2.83;;;;;;;23.20;41.99;99073.06;4944523;29;20033;-95
2023/05/23 10:49:01;;;;;;;;;;;;;;;;;;;;;
2023/05/23 10:51:30;;;;;;;4.43;3.05;;;;;;;23.20;43.90;99084.03;4955688;29;20406;-94
2023/05/23 10:54:12;;;;;;;5.65;2.92;;;;;;;23.46;43.19;99077.91;4891282;29;20068;-94
2023/05/23 10:56:48;;;;;;;;;;;;;;;;;;;;;
2023/05/23 10:59:34;;;;;;;5.45;3.00;;;;;;;23.36;42.65;99073.00;4897649;29;20052;-96
2023/05/23 11:02:25;;;;;;;6.20;2.97;;;;;;;23.36;43.21;99078.50;4888692;29;20012;-94
2023/05/23 11:05:32;;;;;;;;;;;;;;;;;;;;;
2023/05/23 11:08:09;;;;;;;7.88;3.38;;;;;;;23.50;43.99;99105.47;4906873;29;20558;-95
2023/05/23 11:11:07;;;;;;;5.88;3.88;;;;;;;23.65;43.96;99096.34;4875375;29;20029;-95
2023/05/23 11:13:59;;;;;;;9.52;3.58;;;;;;;23.52;43.21;99095.72;4871408;29;20013;-93
2023/05/23 11:16:41;;;;;;;6.95;3.17;;;;;;;23.51;43.65;99063.91;4856567;29;20029;-92
2023/05/23 11:19:29;;;;;;;;;;;;;;;;;;;;;
2023/05/23 11:22:00;;;;;;;6.00;3.97;;;;;;;23.84;44.80;99076.31;4903515;29;20132;-95
2023/05/23 11:24:49;;;;;;;6.55;3.60;;;;;;;24.10;43.64;99088.56;4871216;29;20039;-96
2023/05/23 11:27:41;;;;;;;5.20;3.58;;;;;;;24.10;43.46;99070.09;4930514;29;20053;-95
2023/05/23 11:30:31;;;;;;;;;;;;;;;;;;;;;
2023/05/23 11:33:09;;;;;;;14.48;10.93;;;;;;;24.33;43.45;99088.56;4951178;29;20075;-95
2023/05/23 11:35:51;;;;;;;11.65;6.32;;;;;;;24.05;42.94;99069.59;4950971;29;20039;-94
2023/05/23 11:43:48;;;;;;;6.57;3.58;;;;;;;24.05;43.58;99086.09;5176418;23;20075;-95
2023/05/23 11:46:17;;;;;;;5.65;3.33;;;;;;;23.76;43.82;99071.81;4933848;29;20108;-94
2023/05/23 11:49:14;;;;;;;4.63;2.80;;;;;;;23.65;43.38;99062.56;4935523;29;20027;-95
2023/05/23 11:51:40;;;;;;;11.93;5.13;;;;;;;23.80;43.29;99072.69;4939117;29;20058;-96
2023/05/23 11:54:06;;;;;;;6.30;2.90;;;;;;;23.64;42.82;99060.97;4917667;29;20035;-94
2023/05/23 12:00:00;;;;;;;7.07;2.70;;;;;;;23.30;42.90;99071.69;4959794;28;20102;-96
2023/05/23 12:16:51;;;;;;;4.10;2.80;;;;;;;22.55;47.11;99073.56;3863064;23;20688;31
2023/05/23 12:20:12;;;;;;;5.95;3.50;;;;;;;22.68;45.83;99052.28;4900808;29;20266;-96
2023/05/23 12:23:03;;;;;;;8.10;3.03;;;;;;;22.95;44.81;99056.00;4905809;29;20131;-95
2023/05/23 12:26:10;;;;;;;;;;;;;;;;;;;;;
2023/05/23 12:29:04;;;;;;;;;;;;;;;;;;;;;
2023/05/23 12:31:44;;;;;;;8.40;4.38;;;;;;;22.82;47.96;99049.06;4890375;29;20127;-94
2023/05/23 12:37:28;;;;;;;11.23;6.57;;;;;;;22.80;46.86;99028.25;4892603;29;20043;-95
2023/05/23 12:40:47;;;;;;;9.30;5.78;;;;;;;22.93;46.76;99036.34;4898488;29;20044;-96
2023/05/23 12:43:18;;;;;;;8.45;4.32;;;;;;;23.12;46.14;99032.88;4874045;29;20993;-94
2023/05/23 12:45:47;;;;;;;7.72;3.47;;;;;;;23.38;45.51;99040.47;4834961;29;20033;-94
2023/05/23 12:48:17;;;;;;;6.60;5.25;;;;;;;23.14;45.71;99030.56;4861545;29;20119;-94
2023/05/23 12:50:43;;;;;;;8.52;5.75;;;;;;;23.65;43.78;99035.09;4862758;29;20020;-89
2023/05/23 12:53:19;;;;;;;;;;;;;;;;;;;;;
2023/05/23 12:55:45;;;;;;;7.07;4.03;;;;;;;24.32;42.31;99021.72;4870966;29;20120;-90
2023/05/23 12:58:11;;;;;;;6.90;4.75;;;;;;;24.83;41.32;99014.22;4918560;29;20043;-93
2023/05/23 13:00:48;;;;;;;11.50;4.38;;;;;;;25.38;40.36;99025.53;4879784;29;20131;-95
2023/05/23 13:03:24;;;;;;;7.05;4.50;;;;;;;25.36;40.29;99016.88;4884130;29;20119;-96
2023/05/23 13:06:20;;;;;;;;;;;;;;;;;;;;;
2023/05/23 13:19:50;;;;;;;5.60;3.63;;;;;;;24.31;41.75;99028.38;2990839;23;20309;-92
2023/05/23 13:22:17;;;;;;;6.35;3.53;;;;;;;24.37;40.79;99013.16;4923521;29;20086;-96
2023/05/23 13:24:45;;;;;;;5.63;2.95;;;;;;;24.31;40.88;99008.34;4930599;28;20035;-92